YGX weather

Gillam Airport
Gillam, Manitoba, Canada

Public forecast

Using degrees Celsius for public forecast. Weather courtesy of forecast.io.

METAR (pilot weather report)

Retrieved 2018/10/16 01:00 UTC (25 minutes ago):

CYGX 160100Z 10004KT 050V130 1 1/2SM -SN VV015 M04/M05 A2960 RMK SN8 SLP037

TAF (pilot weather forecast)

Retrieved 2018/10/16 01:42 UTC (0 seconds ago):

TAF TAF CYGX 160041Z 1601/1613 09010KT 6SM -SN SCT012 OVC025 TEMPO 1601/1604 11/2SM -SN OVC009 FM160400 36015G25KT 3SM -SN OVC010 TEMPO 1604/1609 1SM -SN OVC008 PROB30 1604/1609 1/2SM SHSN VV004 FM160900 36015G25KT 4SM -SN OVC010 RMK NXT FCST BY 160700Z